Time;durP1;ratioP1;P1;durP2;ratioP2;P2;SDS_P1;SDS_P2;PMS_P1;PMS_P2;Temp;Humidity;BMP_temperature;BMP_pressure;BME280_temperature;BME280_humidity;BME280_pressure;Samples;Min_cycle;Max_cycle;Signal;HPM_P1;HPM_P2
2021/04/01 00:01:43;;;;;;;37.80;25.73;;;11.80;96.60;;;;;;5100021;28;20020;-76
2021/04/01 00:04:10;;;;;;;40.05;26.38;;;11.90;96.20;;;;;;5100802;28;20048;-80
2021/04/01 00:06:36;;;;;;;41.70;26.73;;;11.80;96.30;;;;;;5100576;28;20038;-72
2021/04/01 00:09:03;;;;;;;39.55;26.20;;;11.80;95.90;;;;;;5099680;28;20024;-71
2021/04/01 00:11:29;;;;;;;43.28;27.88;;;11.70;95.90;;;;;;5100519;28;20020;-77
2021/04/01 00:13:55;;;;;;;45.17;29.20;;;11.60;96.10;;;;;;5100958;28;20027;-72
2021/04/01 00:16:22;;;;;;;48.28;30.10;;;11.60;96.60;;;;;;5099553;28;20024;-75
2021/04/01 00:18:48;;;;;;;51.25;32.67;;;11.60;96.30;;;;;;5101323;28;20032;-71
2021/04/01 00:21:14;;;;;;;52.33;33.35;;;11.70;96.20;;;;;;5099005;28;20103;-77
2021/04/01 00:23:40;;;;;;;45.80;29.42;;;11.70;96.50;;;;;;5099837;28;20410;-79
2021/04/01 00:26:07;;;;;;;50.58;30.73;;;11.70;96.40;;;;;;5100690;28;20355;-74
2021/04/01 00:28:33;;;;;;;48.85;30.95;;;11.60;96.00;;;;;;5099775;28;20020;-77
2021/04/01 00:30:59;;;;;;;53.92;32.40;;;11.60;96.40;;;;;;5098856;28;20085;-71
2021/04/01 00:33:25;;;;;;;49.95;32.05;;;11.60;96.10;;;;;;5099374;28;20017;-73
2021/04/01 00:35:51;;;;;;;48.78;30.92;;;11.50;96.10;;;;;;5082195;28;20118;-73
2021/04/01 00:38:17;;;;;;;47.25;32.22;;;11.50;96.60;;;;;;5096116;28;20113;-79
2021/04/01 00:40:43;;;;;;;51.28;31.60;;;11.50;96.40;;;;;;5100469;28;20374;-72
2021/04/01 00:43:09;;;;;;;45.67;30.90;;;11.50;96.30;;;;;;5100137;28;20028;-72
2021/04/01 00:45:34;;;;;;;48.85;32.30;;;11.50;96.50;;;;;;5100372;28;20020;-72
2021/04/01 00:48:00;;;;;;;51.42;31.50;;;11.50;96.60;;;;;;5099332;28;20028;-71
2021/04/01 00:50:30;;;;;;;44.70;30.30;;;11.40;96.50;;;;;;5098780;28;20026;-71
2021/04/01 00:52:57;;;;;;;50.20;31.27;;;11.50;96.50;;;;;;5081863;28;20123;-74
2021/04/01 00:55:23;;;;;;;43.20;28.30;;;11.40;96.80;;;;;;5100393;28;20019;-74
2021/04/01 00:57:51;;;;;;;49.33;27.90;;;11.40;96.60;;;;;;5100204;28;20028;-71
2021/04/01 01:00:23;;;;;;;43.45;28.42;;;11.40;96.70;;;;;;5099978;28;20105;-71
2021/04/01 01:02:49;;;;;;;37.85;25.55;;;11.30;96.70;;;;;;5099415;28;20503;-76
2021/04/01 01:05:16;;;;;;;41.35;25.02;;;11.30;96.90;;;;;;5099138;28;20063;-71
2021/04/01 01:07:42;;;;;;;39.38;26.17;;;11.20;96.90;;;;;;5080973;28;20016;-78
2021/04/01 01:10:31;;;;;;;39.50;26.35;;;11.20;97.00;;;;;;5099598;28;20055;-70
2021/04/01 01:12:59;;;;;;;39.05;25.98;;;11.10;97.30;;;;;;4978275;28;20118;-71
2021/04/01 01:15:25;;;;;;;41.45;27.17;;;11.10;97.30;;;;;;4978651;28;20093;-72
2021/04/01 01:17:52;;;;;;;38.28;24.95;;;11.10;97.40;;;;;;4978800;28;20034;-70
2021/04/01 01:20:22;;;;;;;36.70;25.30;;;11.00;97.50;;;;;;4978351;28;20078;-76
2021/04/01 01:22:50;;;;;;;33.05;23.92;;;11.00;97.50;;;;;;4978870;28;20019;-72
2021/04/01 01:25:17;;;;;;;35.15;24.90;;;11.10;97.40;;;;;;4977406;28;20573;-75
2021/04/01 01:27:43;;;;;;;34.75;24.20;;;11.10;97.50;;;;;;4978741;28;20462;-78
2021/04/01 01:30:13;;;;;;;36.65;24.55;;;11.00;97.60;;;;;;4978483;28;20034;-72
2021/04/01 01:32:42;;;;;;;45.88;29.08;;;11.00;97.30;;;;;;4962881;28;20042;-77
2021/04/01 01:35:21;;;;;;;45.85;31.40;;;10.90;97.10;;;;;;4962670;28;20121;-79
2021/04/01 01:37:58;;;;;;;50.60;33.35;;;10.90;97.50;;;;;;4976808;28;20031;-70
2021/04/01 01:40:27;;;;;;;66.55;41.28;;;10.80;97.40;;;;;;4976595;28;20035;-73
2021/04/01 01:42:55;;;;;;;84.72;49.78;;;10.90;97.40;;;;;;4978264;28;20035;-73
2021/04/01 01:45:22;;;;;;;95.20;54.78;;;10.90;97.10;;;;;;4977781;28;20026;-71
2021/04/01 01:47:48;;;;;;;84.25;48.20;;;11.00;97.20;;;;;;4963106;28;20493;-72
2021/04/01 01:50:16;;;;;;;83.07;44.53;;;10.90;97.00;;;;;;5038390;28;20060;-71
2021/04/01 01:52:42;;;;;;;53.75;32.45;;;10.90;97.10;;;;;;5081707;28;20024;-71
2021/04/01 01:55:09;;;;;;;47.08;30.88;;;11.00;97.20;;;;;;5098424;28;20046;-79
2021/04/01 01:57:36;;;;;;;59.85;37.83;;;11.00;97.20;;;;;;5099210;28;20153;-72
2021/04/01 02:00:05;;;;;;;60.22;37.63;;;11.00;96.50;;;;;;5098594;28;20107;-74
2021/04/01 02:02:31;;;;;;;58.58;35.72;;;10.90;96.40;;;;;;5098393;28;20426;-73
2021/04/01 02:04:57;;;;;;;56.10;35.90;;;10.80;96.60;;;;;;5099571;28;20025;-76
2021/04/01 02:07:23;;;;;;;53.30;34.30;;;10.60;96.90;;;;;;5099160;28;20021;-80
2021/04/01 02:09:49;;;;;;;47.83;32.50;;;10.60;97.10;;;;;;5080829;28;20024;-78
2021/04/01 02:12:16;;;;;;;45.00;32.70;;;10.60;97.20;;;;;;5098594;28;20021;-72
2021/04/01 02:14:44;;;;;;;46.10;31.63;;;10.60;97.60;;;;;;5098465;28;20432;-71
2021/04/01 02:17:16;;;;;;;45.40;29.75;;;10.70;97.50;;;;;;5098327;28;20059;-75
2021/04/01 02:19:42;;;;;;;43.70;28.42;;;10.60;97.40;;;;;;5098600;28;20028;-80
2021/04/01 02:22:08;;;;;;;44.90;26.85;;;10.60;97.50;;;;;;5098821;28;20504;-79
2021/04/01 02:24:34;;;;;;;35.15;25.42;;;10.60;97.40;;;;;;5098431;28;20028;-73
2021/04/01 02:27:00;;;;;;;41.50;27.67;;;10.50;97.60;;;;;;5098507;28;20012;-72
2021/04/01 02:29:26;;;;;;;37.33;25.02;;;10.50;97.70;;;;;;5080650;28;20126;-72
2021/04/01 02:31:52;;;;;;;38.83;25.85;;;10.40;97.70;;;;;;5098534;28;20031;-72
2021/04/01 02:34:19;;;;;;;43.63;28.80;;;10.40;97.70;;;;;;5098922;28;20104;-75
2021/04/01 02:36:46;;;;;;;50.67;31.85;;;10.30;97.70;;;;;;5098777;28;20028;-79
2021/04/01 02:39:13;;;;;;;49.65;31.48;;;10.20;98.10;;;;;;5096890;28;20040;-71
2021/04/01 02:41:39;;;;;;;44.75;30.98;;;10.30;98.40;;;;;;5099057;28;20024;-72
2021/04/01 02:44:05;;;;;;;45.25;29.40;;;10.30;98.30;;;;;;5099407;28;20024;-78
2021/04/01 02:46:31;;;;;;;44.67;28.83;;;10.30;98.10;;;;;;5098256;28;20482;-73
2021/04/01 02:48:57;;;;;;;44.13;28.55;;;10.20;98.20;;;;;;5098754;28;20016;-71
2021/04/01 02:51:23;;;;;;;38.63;26.23;;;10.20;98.10;;;;;;5099547;28;20185;-77
2021/04/01 02:53:49;;;;;;;41.70;26.45;;;10.20;98.10;;;;;;5099420;28;20024;-72
2021/04/01 02:56:15;;;;;;;39.45;26.23;;;10.20;98.30;;;;;;5101326;28;20085;-78
2021/04/01 02:58:42;;;;;;;37.88;26.55;;;10.10;98.40;;;;;;5102807;28;20024;-72
2021/04/01 03:01:08;;;;;;;36.55;26.10;;;10.20;98.30;;;;;;5101992;28;20142;-75
2021/04/01 03:03:38;;;;;;;38.70;26.48;;;10.10;98.40;;;;;;5101518;28;20044;-72
2021/04/01 03:06:05;;;;;;;51.17;39.05;;;10.10;98.60;;;;;;5084644;28;20028;-71
2021/04/01 03:08:31;;;;;;;42.33;27.45;;;10.10;98.70;;;;;;5100802;28;20077;-77
2021/04/01 03:10:57;;;;;;;41.08;26.95;;;10.10;98.50;;;;;;5101948;28;20024;-76
2021/04/01 03:13:26;;;;;;;39.58;26.35;;;10.10;98.40;;;;;;5101607;28;20071;-72
2021/04/01 03:15:52;;;;;;;41.10;25.70;;;10.10;98.10;;;;;;5100849;28;20383;-72
2021/04/01 03:18:19;;;;;;;40.00;24.98;;;10.00;98.10;;;;;;5101364;28;20020;-71
2021/04/01 03:20:47;;;;;;;40.28;26.80;;;10.00;98.20;;;;;;5102236;28;20016;-72
2021/04/01 03:23:13;;;;;;;38.50;25.75;;;10.00;98.20;;;;;;5101234;28;20004;-79
2021/04/01 03:25:40;;;;;;;39.05;25.13;;;10.00;98.00;;;;;;5101611;28;20024;-77
2021/04/01 03:28:06;;;;;;;40.58;26.15;;;10.10;98.10;;;;;;5101872;28;20485;-76
2021/04/01 03:30:33;;;;;;;38.97;25.90;;;10.10;97.90;;;;;;5101051;28;20115;-73
2021/04/01 03:32:59;;;;;;;37.65;25.83;;;10.00;97.90;;;;;;5082909;28;20016;-72
2021/04/01 03:35:24;;;;;;;41.25;26.52;;;10.00;97.50;;;;;;5082938;28;20024;-71
2021/04/01 03:37:54;;;;;;;42.22;27.48;;;10.00;97.50;;;;;;5100169;28;20085;-71
2021/04/01 03:40:21;;;;;;;43.70;27.27;;;9.90;98.00;;;;;;5100403;28;20020;-75
2021/04/01 03:42:47;;;;;;;45.42;28.50;;;9.80;98.00;;;;;;5101292;28;20047;-78
2021/04/01 03:45:17;;;;;;;42.85;27.85;;;9.90;98.30;;;;;;5100662;28;20020;-76
2021/04/01 03:47:44;;;;;;;38.55;27.00;;;9.90;98.20;;;;;;5099074;28;20099;-72
2021/04/01 03:50:12;;;;;;;45.22;28.60;;;9.90;98.50;;;;;;5100881;28;20020;-79
2021/04/01 03:52:39;;;;;;;41.75;26.15;;;9.90;98.50;;;;;;5101014;28;20107;-72
2021/04/01 03:55:22;;;;;;;41.97;26.58;;;9.80;98.20;;;;;;5101091;28;20021;-71
2021/04/01 03:57:51;;;;;;;38.03;24.98;;;9.80;98.20;;;;;;5101740;28;20044;-79
2021/04/01 04:00:22;;;;;;;38.78;25.95;;;9.70;98.50;;;;;;5101572;28;20044;-72
2021/04/01 04:03:00;;;;;;;44.38;26.98;;;9.70;98.60;;;;;;5100228;28;20048;-79
2021/04/01 04:08:36;;;;;;;44.35;27.23;;;9.70;98.50;;;;;;5102014;28;20030;-71
2021/04/01 04:16:06;;;;;;;49.13;29.27;;;9.40;98.80;;;;;;5102805;28;20039;-75
2021/04/01 04:18:33;;;;;;;51.85;29.05;;;9.40;98.90;;;;;;5100941;28;20020;-72
2021/04/01 04:20:58;;;;;;;47.28;30.70;;;9.40;99.10;;;;;;5099824;28;20084;-72
2021/04/01 04:23:25;;;;;;;53.58;29.90;;;9.40;99.30;;;;;;5098919;28;20044;-72
2021/04/01 04:25:53;;;;;;;53.70;29.83;;;9.40;99.10;;;;;;5099585;28;20017;-78
2021/04/01 04:28:28;;;;;;;48.13;29.45;;;9.40;99.10;;;;;;5098750;28;20453;-71
2021/04/01 04:30:54;;;;;;;50.80;28.95;;;9.40;99.10;;;;;;5099866;28;20062;-71
2021/04/01 04:33:20;;;;;;;44.72;27.20;;;9.40;99.00;;;;;;5100015;28;20024;-72
2021/04/01 04:35:46;;;;;;;45.53;29.75;;;9.40;99.20;;;;;;5099100;28;20036;-71
2021/04/01 04:38:11;;;;;;;55.08;30.58;;;9.40;99.20;;;;;;5100058;28;20024;-72
2021/04/01 04:40:38;;;;;;;45.08;30.10;;;9.40;99.20;;;;;;5098818;28;20474;-74
2021/04/01 04:43:03;;;;;;;50.92;31.33;;;9.40;99.20;;;;;;5100516;28;20028;-70
2021/04/01 04:45:29;;;;;;;50.15;30.83;;;9.40;99.20;;;;;;5099262;28;20153;-71
2021/04/01 04:47:55;;;;;;;49.90;32.20;;;9.40;99.10;;;;;;5100493;28;20024;-73
2021/04/01 04:50:21;;;;;;;48.42;32.67;;;9.40;99.20;;;;;;5100269;28;20027;-73
2021/04/01 04:52:47;;;;;;;50.08;32.20;;;9.40;99.20;;;;;;5081534;28;20438;-72
2021/04/01 04:55:13;;;;;;;54.22;32.97;;;9.40;99.30;;;;;;5099489;28;20398;-72
2021/04/01 04:57:47;;;;;;;61.58;39.33;;;9.40;99.20;;;;;;5100213;28;20054;-77
2021/04/01 05:05:33;;;;;;;87.43;52.95;;;9.60;99.30;;;;;;5098762;28;20035;-72
2021/04/01 05:07:59;;;;;;;101.90;65.97;;;9.60;99.50;;;;;;5100328;28;20493;-72
2021/04/01 05:10:25;;;;;;;107.93;67.68;;;9.70;99.50;;;;;;5099121;28;20095;-71
2021/04/01 05:13:25;;;;;;;107.85;67.18;;;9.70;99.40;;;;;;5099861;28;20095;-72
2021/04/01 05:15:48;;;;;;;85.35;54.35;;;9.70;99.30;;;;;;5094314;28;20520;-79
2021/04/01 05:18:29;;;;;;;91.32;51.95;;;9.70;99.40;;;;;;5099176;28;20036;-71
2021/04/01 05:20:57;;;;;;;88.07;53.83;;;9.80;99.40;;;;;;5098432;28;20035;-71
2021/04/01 05:23:39;;;;;;;90.68;53.10;;;9.90;99.10;;;;;;5097523;28;20478;-77
2021/04/01 05:28:42;;;;;;;80.00;45.83;;;10.00;99.20;;;;;;5099270;28;20027;-79
2021/04/01 05:31:10;;;;;;;77.82;45.60;;;10.10;99.30;;;;;;5099484;28;20032;-74
2021/04/01 05:33:37;;;;;;;73.40;43.65;;;10.20;99.00;;;;;;5100346;28;20023;-71
2021/04/01 05:36:11;;;;;;;78.13;42.70;;;10.20;99.10;;;;;;5098927;28;20020;-71
2021/04/01 05:38:39;;;;;;;73.13;43.67;;;10.40;99.10;;;;;;5098046;28;20024;-79
2021/04/01 05:41:08;;;;;;;64.63;40.63;;;10.50;98.90;;;;;;5097665;28;20035;-71
2021/04/01 05:43:39;;;;;;;62.13;38.35;;;10.60;98.80;;;;;;5098077;28;20107;-73
2021/04/01 05:46:29;;;;;;;59.72;36.70;;;10.60;98.90;;;;;;5098976;28;20039;-74
2021/04/01 05:49:02;;;;;;;56.67;37.35;;;10.60;99.20;;;;;;5097748;28;20039;-71
2021/04/01 05:57:23;;;;;;;57.53;37.73;;;10.90;99.60;;;;;;5099111;28;20027;-81
2021/04/01 06:02:51;;;;;;;61.30;41.13;;;11.20;99.70;;;;;;5094648;28;20108;-71
2021/04/01 06:05:23;;;;;;;56.80;39.03;;;11.30;99.80;;;;;;5095669;28;20068;-71
2021/04/01 06:07:53;;;;;;;58.13;38.92;;;11.50;99.50;;;;;;5096776;28;20036;-70
2021/04/01 06:10:21;;;;;;;54.45;38.22;;;11.60;99.50;;;;;;5098630;28;20035;-71
2021/04/01 06:12:47;;;;;;;55.47;37.80;;;11.70;99.30;;;;;;5096590;28;20055;-70
2021/04/01 06:15:13;;;;;;;56.17;36.35;;;11.80;98.50;;;;;;5095676;28;20374;-69
2021/04/01 06:17:47;;;;;;;57.67;38.42;;;11.80;98.50;;;;;;5076521;28;20028;-70
2021/04/01 06:20:14;;;;;;;62.30;36.27;;;11.90;98.40;;;;;;5078806;28;20032;-72
2021/04/01 06:22:41;;;;;;;50.88;34.65;;;12.00;98.50;;;;;;5067956;28;20020;-74
2021/04/01 06:25:15;;;;;;;53.65;34.15;;;;;;;;;;5097341;28;20107;-73
2021/04/01 06:27:53;;;;;;;49.17;32.67;;;12.20;97.90;;;;;;5075473;28;20016;-70
2021/04/01 06:30:23;;;;;;;50.78;35.22;;;12.30;97.10;;;;;;5081172;28;20055;-76
2021/04/01 06:32:59;;;;;;;54.00;35.47;;;12.40;97.00;;;;;;5082896;28;20025;-74
2021/04/01 06:41:05;;;;;;;52.63;34.67;;;12.80;96.80;;;;;;5080823;28;20107;-74
2021/04/01 06:43:56;;;;;;;65.53;40.15;;;13.00;96.70;;;;;;5092608;28;20039;-75
2021/04/01 06:46:25;;;;;;;59.05;39.80;;;13.10;96.30;;;;;;5097450;28;20017;-69
2021/04/01 06:51:39;;;;;;;49.35;31.27;;;13.40;96.60;;;;;;5102287;28;20031;-75
2021/04/01 06:54:18;;;;;;;50.33;31.42;;;13.50;96.10;;;;;;5098294;28;20378;-73
2021/04/01 07:00:08;;;;;;;47.53;31.70;;;13.80;95.40;;;;;;5047069;28;20490;-70
2021/04/01 07:02:43;;;;;;;45.40;32.53;;;14.00;94.40;;;;;;5075685;28;20048;-69
2021/04/01 07:05:36;;;;;;;54.45;36.15;;;14.00;94.40;;;;;;5074066;28;20059;-69
2021/04/01 07:08:07;;;;;;;55.13;38.83;;;14.20;93.70;;;;;;5074670;28;20028;-69
2021/04/01 07:10:49;;;;;;;48.35;35.03;;;14.30;94.10;;;;;;5074265;28;20157;-69
2021/04/01 07:13:19;;;;;;;47.20;31.67;;;14.50;93.90;;;;;;5074381;28;20051;-69
2021/04/01 07:15:48;;;;;;;47.22;30.75;;;14.50;93.20;;;;;;5074159;28;20165;-68
2021/04/01 07:23:36;;;;;;;47.50;31.33;;;15.10;92.20;;;;;;5082227;28;20032;-77
2021/04/01 07:48:42;;;;;;;23.15;16.90;;;16.30;87.10;;;;;;5089454;28;20032;-72
2021/04/01 07:51:35;;;;;;;25.02;16.67;;;16.20;86.80;;;;;;5094319;28;20107;-71
2021/04/01 07:54:03;;;;;;;23.42;16.95;;;16.20;85.70;;;;;;5077921;28;20024;-75
2021/04/01 07:56:37;;;;;;;26.13;18.25;;;16.40;83.70;;;;;;5094930;28;20379;-72
2021/04/01 08:01:51;;;;;;;31.58;20.98;;;16.40;85.00;;;;;;5093573;28;19904;-70
2021/04/01 08:04:17;;;;;;;27.48;19.17;;;16.50;88.10;;;;;;5096046;28;20044;-73
2021/04/01 08:06:44;;;;;;;26.35;19.70;;;16.50;87.10;;;;;;5101277;28;20024;-72
2021/04/01 08:09:17;;;;;;;31.63;20.15;;;16.60;88.10;;;;;;5100895;28;20023;-71
2021/04/01 08:11:49;;;;;;;24.98;19.73;;;16.90;88.30;;;;;;5099407;28;20374;-70
2021/04/01 08:14:24;;;;;;;26.52;19.25;;;17.30;85.90;;;;;;5101732;28;20032;-70
2021/04/01 08:17:00;;;;;;;26.95;18.95;;;17.60;82.70;;;;;;5099313;28;20028;-73
2021/04/01 08:19:29;;;;;;;28.25;20.25;;;18.00;85.20;;;;;;5098377;28;20028;-73
2021/04/01 08:22:00;;;;;;;29.60;22.90;;;18.60;83.50;;;;;;5099827;28;20095;-68
2021/04/01 08:24:31;;;;;;;30.95;21.60;;;18.80;80.80;;;;;;5083238;28;20416;-71
2021/04/01 08:27:20;;;;;;;27.80;20.15;;;18.90;76.70;;;;;;5101304;28;20031;-70
2021/04/01 08:34:48;;;;;;;24.48;19.08;;;18.90;78.00;;;;;;5098359;28;20028;-75
2021/04/01 08:37:15;;;;;;;25.38;16.65;;;19.00;75.90;;;;;;5097932;28;20035;-73
2021/04/01 08:39:44;;;;;;;20.52;14.57;;;19.40;70.10;;;;;;5098867;28;20059;-72
2021/04/01 08:42:29;;;;;;;24.48;16.70;;;19.80;73.70;;;;;;5092767;28;20508;-68
2021/04/01 08:45:30;;;;;;;24.70;14.65;;;19.60;75.60;;;;;;5091783;28;20155;-68
2021/04/01 08:47:59;;;;;;;21.45;16.63;;;20.10;70.20;;;;;;5091765;28;20056;-68
2021/04/01 08:50:33;;;;;;;21.17;15.63;;;20.00;73.70;;;;;;5076497;28;20493;-68
2021/04/01 08:53:09;;;;;;;22.52;19.23;;;20.20;69.60;;;;;;5094536;28;20107;-69
2021/04/01 08:56:18;;;;;;;23.85;17.15;;;20.20;67.10;;;;;;5095531;28;20032;-68
2021/04/01 08:58:59;;;;;;;18.85;12.75;;;20.20;66.80;;;;;;5094949;28;20032;-71
2021/04/01 09:01:34;;;;;;;17.30;9.25;;;20.90;67.80;;;;;;5096365;28;20111;-70
2021/04/01 09:04:00;;;;;;;13.13;10.13;;;21.00;66.80;;;;;;5060915;28;20056;-68
2021/04/01 09:06:32;;;;;;;15.98;12.60;;;21.10;62.90;;;;;;5058353;28;20475;-72
2021/04/01 09:09:06;;;;;;;14.15;11.02;;;21.40;62.80;;;;;;5055015;28;20116;-74
2021/04/01 09:11:57;;;;;;;20.95;15.82;;;21.50;66.30;;;;;;5055453;28;20083;-74
2021/04/01 09:14:27;;;;;;;11.85;8.70;;;21.50;60.20;;;;;;5055469;28;20047;-70
2021/04/01 09:17:21;;;;;;;14.50;10.75;;;21.40;60.60;;;;;;5055451;28;20426;-74
2021/04/01 09:19:47;;;;;;;12.32;8.75;;;21.60;61.30;;;;;;5054150;28;20115;-72
2021/04/01 09:22:20;;;;;;;14.15;9.75;;;21.60;59.90;;;;;;5051584;28;20418;-71
2021/04/01 09:24:58;;;;;;;11.50;8.70;;;21.70;63.50;;;;;;5050726;28;20032;-68
2021/04/01 09:27:24;;;;;;;13.02;9.82;;;21.40;61.50;;;;;;5051204;28;20028;-68
2021/04/01 09:30:05;;;;;;;17.55;9.30;;;20.90;60.60;;;;;;5049900;28;20035;-70
2021/04/01 09:32:32;;;;;;;12.70;8.45;;;21.60;65.10;;;;;;5049909;28;20056;-70
2021/04/01 09:35:00;;;;;;;10.55;7.78;;;22.10;59.90;;;;;;5052271;28;20471;-68
2021/04/01 09:37:27;;;;;;;9.88;6.35;;;22.20;62.00;;;;;;5052190;28;20033;-70
2021/04/01 09:40:08;;;;;;;11.90;7.15;;;22.60;61.20;;;;;;5052859;28;20367;-68
2021/04/01 09:42:46;;;;;;;10.63;6.90;;;22.70;59.10;;;;;;5050593;28;20032;-70
2021/04/01 09:45:29;;;;;;;12.65;7.68;;;22.50;59.70;;;;;;5052701;28;20562;-73
2021/04/01 09:48:00;;;;;;;10.10;7.05;;;22.40;61.30;;;;;;5060649;28;20033;-69
2021/04/01 09:50:31;;;;;;;10.30;7.35;;;22.70;59.50;;;;;;5060399;28;20029;-74
2021/04/01 09:53:24;;;;;;;11.65;7.00;;;22.40;58.20;;;;;;5052181;28;20097;-71
2021/04/01 09:55:56;;;;;;;15.00;7.40;;;23.00;61.70;;;;;;5050265;28;20372;-71
2021/04/01 09:58:31;;;;;;;11.63;6.65;;;23.20;60.50;;;;;;5053553;28;20024;-71
2021/04/01 10:04:11;;;;;;;10.30;7.53;;;23.60;57.90;;;;;;5082011;28;20059;-70
2021/04/01 10:06:51;;;;;;;9.70;6.50;;;23.30;57.40;;;;;;5076170;28;20036;-68
2021/04/01 10:09:18;;;;;;;12.13;7.60;;;23.40;59.60;;;;;;5092824;28;20480;-68
2021/04/01 10:11:53;;;;;;;10.38;8.07;;;23.70;56.80;;;;;;5097314;28;20052;-67
2021/04/01 10:14:20;;;;;;;9.02;7.03;;;23.70;56.30;;;;;;5095220;28;20020;-69
2021/04/01 10:17:04;;;;;;;14.50;10.63;;;24.00;57.80;;;;;;5097309;28;20650;-68
2021/04/01 10:19:42;;;;;;;11.63;7.93;;;23.60;56.80;;;;;;5103281;28;20024;-74
2021/04/01 10:22:22;;;;;;;11.50;7.80;;;23.90;57.10;;;;;;5104275;28;20078;-74
2021/04/01 10:25:17;;;;;;;10.80;7.47;;;23.90;56.20;;;;;;5103727;28;20027;-74
2021/04/01 10:30:22;;;;;;;12.27;8.50;;;24.60;56.40;;;;;;5102171;28;20024;-73
2021/04/01 10:33:17;;;;;;;14.60;9.80;;;24.40;53.10;;;;;;5101981;28;20073;-75
2021/04/01 10:35:48;;;;;;;14.70;10.85;;;24.20;52.50;;;;;;5103423;28;20020;-72
2021/04/01 10:38:15;;;;;;;14.40;9.55;;;24.30;55.80;;;;;;5084273;28;20040;-68
2021/04/01 10:40:41;;;;;;;16.40;9.57;;;24.50;56.00;;;;;;5101524;28;20020;-68
2021/04/01 10:43:10;;;;;;;13.00;9.50;;;25.00;55.00;;;;;;5102490;28;20134;-72
2021/04/01 10:45:39;;;;;;;17.02;11.18;;;25.20;54.10;;;;;;5102100;28;20024;-69
2021/04/01 10:48:13;;;;;;;15.77;10.45;;;25.50;52.90;;;;;;5101838;28;20020;-71
2021/04/01 10:50:40;;;;;;;14.27;10.30;;;25.40;50.70;;;;;;5102133;28;20028;-78
2021/04/01 10:53:20;;;;;;;15.93;10.85;;;24.60;52.70;;;;;;5083448;28;20051;-71
2021/04/01 10:55:47;;;;;;;15.73;10.38;;;24.70;52.20;;;;;;5084530;28;20054;-72
2021/04/01 10:58:15;;;;;;;13.05;10.02;;;25.10;53.20;;;;;;5101320;28;20022;-71
2021/04/01 11:00:54;;;;;;;19.10;10.05;;;24.70;51.40;;;;;;5102115;28;20509;-70
2021/04/01 11:03:46;;;;;;;16.77;12.13;;;25.30;52.00;;;;;;5100929;28;20444;-77
2021/04/01 11:06:14;;;;;;;16.98;11.43;;;25.30;52.90;;;;;;5088805;28;20024;-75
2021/04/01 11:08:42;;;;;;;13.20;10.52;;;24.30;54.30;;;;;;5102395;28;20024;-72
2021/04/01 11:11:09;;;;;;;17.40;10.63;;;24.70;53.40;;;;;;5101085;28;20020;-70
2021/04/01 11:13:37;;;;;;;16.63;10.35;;;25.00;52.30;;;;;;5080655;28;20028;-71
2021/04/01 11:16:06;;;;;;;16.50;10.85;;;24.40;51.10;;;;;;5098815;28;20032;-76
2021/04/01 11:18:36;;;;;;;14.02;9.60;;;24.40;52.60;;;;;;5099729;28;20032;-72
2021/04/01 11:21:05;;;;;;;12.63;10.05;;;23.90;52.90;;;;;;5101117;28;20027;-70
2021/04/01 11:23:32;;;;;;;43.33;22.88;;;23.80;53.30;;;;;;5101203;28;20034;-75
2021/04/01 11:25:59;;;;;;;14.38;9.07;;;24.10;55.00;;;;;;5102082;28;20021;-72
2021/04/01 11:28:49;;;;;;;16.52;8.98;;;24.20;53.60;;;;;;5083515;28;20347;-75
2021/04/01 11:31:41;;;;;;;13.45;9.73;;;24.00;52.20;;;;;;5101013;28;20036;-73
2021/04/01 11:34:08;;;;;;;14.40;9.13;;;24.00;51.90;;;;;;5077571;28;20028;-79
2021/04/01 11:36:39;;;;;;;14.02;9.27;;;23.80;51.70;;;;;;5079440;28;20039;-71
2021/04/01 11:39:22;;;;;;;13.63;8.88;;;23.60;53.10;;;;;;5098004;28;20042;-72
2021/04/01 11:41:49;;;;;;;14.35;9.80;;;24.00;52.30;;;;;;5098359;28;20534;-82
2021/04/01 11:44:18;;;;;;;12.45;8.52;;;23.70;52.00;;;;;;5082361;28;20024;-71
2021/04/01 11:46:44;;;;;;;15.30;10.20;;;23.80;52.70;;;;;;5099590;28;20036;-71
2021/04/01 11:49:11;;;;;;;12.18;8.80;;;23.60;52.20;;;;;;5097144;28;20021;-71
2021/04/01 11:51:37;;;;;;;12.95;9.13;;;23.60;51.60;;;;;;5096812;28;20031;-72
2021/04/01 11:54:08;;;;;;;10.73;7.78;;;23.80;52.20;;;;;;5098073;28;20024;-77
2021/04/01 11:56:36;;;;;;;10.27;7.80;;;24.00;52.30;;;;;;5098201;28;20067;-80
2021/04/01 11:59:16;;;;;;;13.95;8.73;;;24.30;52.50;;;;;;5099030;28;20025;-77
2021/04/01 12:04:50;;;;;;;18.92;7.60;;;24.70;51.70;;;;;;5092543;28;20143;-71
2021/04/01 12:07:16;;;;;;;12.43;7.22;;;25.40;54.40;;;;;;5067971;28;20127;-73
2021/04/01 12:09:52;;;;;;;10.55;7.13;;;25.30;52.70;;;;;;5079617;28;20031;-73
2021/04/01 12:12:27;;;;;;;12.98;6.53;;;25.30;53.40;;;;;;5077220;28;20109;-72
2021/04/01 12:14:53;;;;;;;11.85;6.65;;;25.30;48.30;;;;;;5091783;28;20035;-72
2021/04/01 12:17:30;;;;;;;8.68;6.28;;;25.00;49.50;;;;;;5092884;28;20028;-72
2021/04/01 12:19:57;;;;;;;9.40;7.13;;;25.10;52.00;;;;;;5093516;28;20028;-72
2021/04/01 12:22:30;;;;;;;11.05;7.03;;;25.10;50.30;;;;;;5093477;28;20016;-71
2021/04/01 12:24:57;;;;;;;10.35;7.30;;;25.40;50.60;;;;;;5095563;28;20028;-73
2021/04/01 12:27:30;;;;;;;12.63;6.78;;;25.30;50.40;;;;;;5096520;28;20028;-71
2021/04/01 12:29:57;;;;;;;10.23;6.38;;;25.30;49.40;;;;;;5100462;28;20102;-78
2021/04/01 12:32:32;;;;;;;9.82;6.95;;;25.30;50.00;;;;;;5099723;28;20028;-73
2021/04/01 12:35:10;;;;;;;10.65;6.88;;;25.00;48.30;;;;;;5101374;28;20470;-84
2021/04/01 12:37:38;;;;;;;9.98;6.57;;;25.30;54.00;;;;;;5081673;28;20040;-76
2021/04/01 12:40:15;;;;;;;9.55;6.70;;;25.00;49.50;;;;;;5082330;28;20052;-72
2021/04/01 12:42:43;;;;;;;12.02;6.18;;;24.60;48.70;;;;;;5099842;28;20028;-80
2021/04/01 12:45:30;;;;;;;10.32;5.82;;;24.60;49.30;;;;;;5099626;28;20077;-78
2021/04/01 12:48:10;;;;;;;9.32;6.20;;;24.90;51.30;;;;;;5081324;28;20120;-71
2021/04/01 12:50:40;;;;;;;12.98;8.93;;;24.70;49.30;;;;;;5098749;28;20031;-74
2021/04/01 12:53:06;;;;;;;12.32;6.47;;;25.30;52.10;;;;;;5082841;28;20027;-73
2021/04/01 12:55:44;;;;;;;9.77;5.70;;;25.70;51.00;;;;;;5099738;28;20084;-79
2021/04/01 12:58:53;;;;;;;11.13;6.00;;;25.90;52.50;;;;;;5100422;28;20039;-69
2021/04/01 13:03:53;;;;;;;14.23;8.45;;;26.70;50.20;;;;;;5095272;28;20047;-70
2021/04/01 13:06:39;;;;;;;10.98;6.90;;;26.70;48.80;;;;;;5096235;28;20024;-70
2021/04/01 13:11:50;;;;;;;8.10;5.70;;;26.50;47.30;;;;;;5100175;28;20061;-74
2021/04/01 13:14:17;;;;;;;7.18;5.45;;;25.70;47.20;;;;;;5099128;28;20077;-74
2021/04/01 13:16:43;;;;;;;8.60;5.80;;;25.70;47.80;;;;;;5099611;28;20020;-74
2021/04/01 13:19:10;;;;;;;12.52;6.30;;;25.50;46.60;;;;;;5099393;28;20028;-71
2021/04/01 13:26:52;;;;;;;8.07;5.07;;;25.20;48.10;;;;;;5095683;28;20441;-69
2021/04/01 13:29:22;;;;;;;7.50;5.07;;;25.50;48.60;;;;;;5097150;28;20366;-75
2021/04/01 13:32:04;;;;;;;10.63;5.18;;;25.20;47.40;;;;;;5078813;28;20028;-71
2021/04/01 13:37:32;;;;;;;8.80;5.20;;;24.70;47.80;;;;;;5083505;28;20394;-73
2021/04/01 13:40:16;;;;;;;7.60;4.90;;;24.40;47.10;;;;;;5097837;28;20466;-75
2021/04/01 13:42:46;;;;;;;8.98;5.35;;;24.60;49.00;;;;;;5099943;28;20024;-73
2021/04/01 13:45:15;;;;;;;6.65;4.65;;;25.40;49.60;;;;;;5098946;28;20024;-70
2021/04/01 13:47:44;;;;;;;6.65;4.50;;;25.90;50.00;;;;;;5099907;28;20020;-72
2021/04/01 13:50:14;;;;;;;7.55;4.30;;;26.20;48.50;;;;;;5114374;28;20035;-72
2021/04/01 13:52:45;;;;;;;6.63;4.80;;;26.40;47.50;;;;;;5099168;28;20389;-72
2021/04/01 13:55:21;;;;;;;13.68;5.47;;;26.80;46.20;;;;;;5081005;28;20485;-71
2021/04/01 13:58:11;;;;;;;10.73;5.10;;;26.80;46.40;;;;;;5082075;28;20058;-74
2021/04/01 14:11:36;;;;;;;10.07;4.95;;;25.40;45.20;;;;;;5098207;28;20031;-76
2021/04/01 14:14:03;;;;;;;7.82;4.57;;;25.00;45.50;;;;;;5099009;28;20016;-77
2021/04/01 14:16:28;;;;;;;10.50;4.53;;;24.80;44.70;;;;;;5098320;28;20024;-77
2021/04/01 14:18:55;;;;;;;9.70;4.55;;;24.70;45.00;;;;;;5098757;28;20034;-74
2021/04/01 14:21:22;;;;;;;8.05;4.15;;;24.70;44.50;;;;;;5098322;28;20005;-71
2021/04/01 14:23:50;;;;;;;9.73;4.55;;;24.60;44.90;;;;;;5098853;28;20021;-72
2021/04/01 14:28:44;;;;;;;9.73;5.93;;;24.40;47.20;;;;;;5099573;28;20032;-78
2021/04/01 14:31:11;;;;;;;11.48;6.50;;;24.20;47.70;;;;;;5097925;28;20016;-69
2021/04/01 14:33:40;;;;;;;10.68;4.97;;;24.20;48.40;;;;;;5100034;28;20576;-69
2021/04/01 14:36:07;;;;;;;7.75;4.43;;;24.10;46.70;;;;;;5098354;28;20354;-70
2021/04/01 14:38:35;;;;;;;7.22;4.32;;;23.90;45.00;;;;;;5099188;28;20004;-71
2021/04/01 14:41:09;;;;;;;9.23;4.10;;;23.80;46.20;;;;;;5098948;28;20016;-73